Bungo Princess — 3FXV8 — position and weather

sailwx.info

Track history (hours):
 
Tides and Currents Weather Stations Pressure Air Temp Water Temp Dewpoint Dewpoint Depression Visibility Wind Speed Wind Dir Waves Ship Positions

Bungo Princess

Last reported at 2017-May-25 10:28 UTC. Time now 2017-May-26 18:57 UTC.
Position N 31°59' E 124°24'.

Length 103 m; draft 6.3 m.

Type: Cargo ship. MMSI: 355074054.

Date/timePositionNaut miles runAvg speedWind from/ knotsBaromVisibWave heightAir tempDewpointWater temp
2017-May-25 10:28N 31°59' E 124°24'510.0
2017-May-25 10:00N 31°56' E 124°20'1710.1
2017-May-25 08:17N 31°43' E 124°06'5012.6
2017-May-25 04:20N 31°16' E 123°18'613.8
2017-May-25 03:54N 31°13' E 123°12'1012.9
2017-May-25 03:09N 31°07' E 123°03'413.4
2017-May-25 02:51N 31°05' E 122°59'513.2
2017-May-25 02:30N 31°02' E 122°55'713.3
2017-May-25 02:00N 30°58' E 122°49'712.7
2017-May-25 01:29N 30°58' E 122°41'612.2
2017-May-25 00:59N 30°59' E 122°34'612.0
2017-May-25 00:28N 31°00' E 122°27'510.7
2017-May-24 23:57N 31°02' E 122°21'4 9.8
2017-May-24 23:30N 31°02' E 122°15'4 7.7
2017-May-24 23:00N 31°03' E 122°11'510.8
2017-May-24 22:30N 31°04' E 122°05'611.7
2017-May-24 22:00N 31°06' E 121°59'611.9
2017-May-24 21:30N 31°09' E 121°53'713.8
2017-May-24 21:00N 31°14' E 121°47'714.6
2017-May-24 20:30N 31°20' E 121°41'611.7
2017-May-24 20:00N 31°23' E 121°36'611.5
2017-May-24 19:30N 31°26' E 121°30'4 8.5
2017-May-24 19:00N 31°29' E 121°27'611.5
2017-May-24 18:30N 31°32' E 121°21'612.9
2017-May-24 18:00N 31°37' E 121°16'612.8
2017-May-24 17:30N 31°41' E 121°10'611.8
2017-May-24 17:00N 31°45' E 121°05'3610.1
2017-May-24 13:26N 32°01' E 120°27'3 1.7
2017-May-24 11:29N 31°58' E 120°25'0 0.0
2017-May-23 05:12N 31°58' E 120°25'1 2.4
2017-May-23 04:56N 31°58' E 120°25'30 8.9
2017-May-23 01:34N 31°47' E 120°58'113.2
2017-May-23 01:28N 31°47' E 120°60'612.2
2017-May-23 01:00N 31°45' E 121°06'612.3
2017-May-23 00:30N 31°41' E 121°11'4 7.1
2017-May-23 00:00N 31°39' E 121°15'0 0.1
2017-May-22 23:30N 31°39' E 121°15'0 0.0
2017-May-22 23:00N 31°39' E 121°15'0 0.0
2017-May-22 22:30N 31°39' E 121°15'0 0.0
2017-May-22 22:00N 31°39' E 121°15'0 0.0
2017-May-22 21:30N 31°39' E 121°15'0 0.0
2017-May-22 20:57N 31°39' E 121°15'0 0.0
2017-May-22 20:30N 31°39' E 121°15'0 0.0
2017-May-22 19:54N 31°39' E 121°15'0 0.0
2017-May-22 19:30N 31°39' E 121°15'0 0.2
2017-May-22 19:00N 31°39' E 121°15'0 0.2
2017-May-22 18:30N 31°39' E 121°15'0 0.0
2017-May-22 18:00N 31°39' E 121°15'2 3.6
2017-May-22 17:30N 31°37' E 121°16'612.0
2017-May-22 17:00N 31°33' E 121°21'612.1
2017-May-22 16:30N 31°29' E 121°26'510.2
2017-May-22 16:00N 31°25' E 121°30'2 3.9
2017-May-22 15:29N 31°23' E 121°31'2 3.2
2017-May-22 14:54N 31°22' E 121°30'0 0.0
2017-May-22 13:57N 31°22' E 121°30'0 0.0
2017-May-22 13:30N 31°22' E 121°30'0 0.0
2017-May-22 13:00N 31°22' E 121°30'0 0.0
2017-May-22 12:30N 31°22' E 121°30'0 0.0
2017-May-22 12:00N 31°22' E 121°30'0 0.0
2017-May-22 11:27N 31°22' E 121°30'0 0.0
2017-May-22 11:00N 31°22' E 121°30'0 0.0
2017-May-22 10:27N 31°22' E 121°30'0 0.0
2017-May-22 10:00N 31°22' E 121°30'0 0.0
2017-May-22 09:27N 31°22' E 121°30'74 3.2
2017-May-21 10:15N 31°04' E 122°54'4 8.2
2017-May-21 09:47N 31°04' E 122°58'  
Track history (hours):
 
Tides and Currents Weather Stations Pressure Air Temp Water Temp Dewpoint Dewpoint Depression Visibility Wind Speed Wind Dir Waves Ship Positions

Bungo Princess

Last reported at 2017-May-25 10:28 UTC. Time now 2017-May-26 18:57 UTC.
Position N 31°59' E 124°24'.

Length 103 m; draft 6.3 m.

Type: Cargo ship. MMSI: 355074054.

Date/timePositionNaut miles runAvg speedWind from/ knotsBaromVisibWave heightAir tempDewpointWater temp
2017-May-25 10:28N 31°59' E 124°24'510.0
2017-May-25 10:00N 31°56' E 124°20'1710.1
2017-May-25 08:17N 31°43' E 124°06'5012.6
2017-May-25 04:20N 31°16' E 123°18'613.8
2017-May-25 03:54N 31°13' E 123°12'1012.9
2017-May-25 03:09N 31°07' E 123°03'413.4
2017-May-25 02:51N 31°05' E 122°59'513.2
2017-May-25 02:30N 31°02' E 122°55'713.3
2017-May-25 02:00N 30°58' E 122°49'712.7
2017-May-25 01:29N 30°58' E 122°41'612.2
2017-May-25 00:59N 30°59' E 122°34'612.0
2017-May-25 00:28N 31°00' E 122°27'510.7
2017-May-24 23:57N 31°02' E 122°21'4 9.8
2017-May-24 23:30N 31°02' E 122°15'4 7.7
2017-May-24 23:00N 31°03' E 122°11'510.8
2017-May-24 22:30N 31°04' E 122°05'611.7
2017-May-24 22:00N 31°06' E 121°59'611.9
2017-May-24 21:30N 31°09' E 121°53'713.8
2017-May-24 21:00N 31°14' E 121°47'714.6
2017-May-24 20:30N 31°20' E 121°41'611.7
2017-May-24 20:00N 31°23' E 121°36'611.5
2017-May-24 19:30N 31°26' E 121°30'4 8.5
2017-May-24 19:00N 31°29' E 121°27'611.5
2017-May-24 18:30N 31°32' E 121°21'612.9
2017-May-24 18:00N 31°37' E 121°16'612.8
2017-May-24 17:30N 31°41' E 121°10'611.8
2017-May-24 17:00N 31°45' E 121°05'3610.1
2017-May-24 13:26N 32°01' E 120°27'3 1.7
2017-May-24 11:29N 31°58' E 120°25'0 0.0
2017-May-23 05:12N 31°58' E 120°25'1 2.4
2017-May-23 04:56N 31°58' E 120°25'30 8.9
2017-May-23 01:34N 31°47' E 120°58'113.2
2017-May-23 01:28N 31°47' E 120°60'612.2
2017-May-23 01:00N 31°45' E 121°06'612.3
2017-May-23 00:30N 31°41' E 121°11'4 7.1
2017-May-23 00:00N 31°39' E 121°15'0 0.1
2017-May-22 23:30N 31°39' E 121°15'0 0.0
2017-May-22 23:00N 31°39' E 121°15'0 0.0
2017-May-22 22:30N 31°39' E 121°15'0 0.0
2017-May-22 22:00N 31°39' E 121°15'0 0.0
2017-May-22 21:30N 31°39' E 121°15'0 0.0
2017-May-22 20:57N 31°39' E 121°15'0 0.0
2017-May-22 20:30N 31°39' E 121°15'0 0.0
2017-May-22 19:54N 31°39' E 121°15'0 0.0
2017-May-22 19:30N 31°39' E 121°15'0 0.2
2017-May-22 19:00N 31°39' E 121°15'0 0.2
2017-May-22 18:30N 31°39' E 121°15'0 0.0
2017-May-22 18:00N 31°39' E 121°15'2 3.6
2017-May-22 17:30N 31°37' E 121°16'612.0
2017-May-22 17:00N 31°33' E 121°21'612.1
2017-May-22 16:30N 31°29' E 121°26'510.2
2017-May-22 16:00N 31°25' E 121°30'2 3.9
2017-May-22 15:29N 31°23' E 121°31'2 3.2
2017-May-22 14:54N 31°22' E 121°30'0 0.0
2017-May-22 13:57N 31°22' E 121°30'0 0.0
2017-May-22 13:30N 31°22' E 121°30'0 0.0
2017-May-22 13:00N 31°22' E 121°30'0 0.0
2017-May-22 12:30N 31°22' E 121°30'0 0.0
2017-May-22 12:00N 31°22' E 121°30'0 0.0
2017-May-22 11:27N 31°22' E 121°30'0 0.0
2017-May-22 11:00N 31°22' E 121°30'0 0.0
2017-May-22 10:27N 31°22' E 121°30'0 0.0
2017-May-22 10:00N 31°22' E 121°30'0 0.0
2017-May-22 09:27N 31°22' E 121°30'74 3.2
2017-May-21 10:15N 31°04' E 122°54'4 8.2
2017-May-21 09:47N 31°04' E 122°58'  

Dump ship's entire track history